Time;durP1;ratioP1;P1;durP2;ratioP2;P2;SDS_P1;SDS_P2;PMS_P1;PMS_P2;Temp;Humidity;BMP_temperature;BMP_pressure;BME280_temperature;BME280_humidity;BME280_pressure;Samples;Min_cycle;Max_cycle;Signal;HPM_P1;HPM_P2
2023/01/21 00:00:41;;;;;;;28.27;10.77;;;-6.00;98.00;;;;;;5017509;28;20022;-64
2023/01/21 00:03:07;;;;;;;16.40;9.15;;;-6.10;98.00;;;;;;5024204;28;20133;-64
2023/01/21 00:05:33;;;;;;;16.95;9.30;;;-6.20;98.00;;;;;;5016989;28;20423;-64
2023/01/21 00:07:59;;;;;;;26.13;11.02;;;-6.20;98.00;;;;;;5015125;28;20323;-65
2023/01/21 00:10:24;;;;;;;17.90;8.75;;;-6.20;98.00;;;;;;5016935;28;20431;-64
2023/01/21 00:12:50;;;;;;;16.60;9.45;;;-6.20;98.00;;;;;;5016806;28;20072;-64
2023/01/21 00:15:15;;;;;;;14.45;9.18;;;-6.20;98.00;;;;;;5018857;28;20080;-64
2023/01/21 00:17:42;;;;;;;15.63;8.88;;;-6.20;98.00;;;;;;5015157;28;20018;-64
2023/01/21 00:20:09;;;;;;;16.75;9.98;;;-6.20;98.00;;;;;;5015769;28;20101;-64
2023/01/21 00:22:35;;;;;;;19.77;11.32;;;-6.20;98.00;;;;;;5014098;28;20344;-65
2023/01/21 00:25:01;;;;;;;20.90;11.85;;;-6.20;98.00;;;;;;5016790;28;20100;-64
2023/01/21 00:27:26;;;;;;;20.42;12.00;;;-6.30;98.00;;;;;;5016586;28;20026;-64
2023/01/21 00:29:52;;;;;;;19.40;11.32;;;-6.30;98.00;;;;;;5017055;28;20415;-64
2023/01/21 00:32:18;;;;;;;22.90;13.30;;;-6.40;98.00;;;;;;5020988;28;20076;-64
2023/01/21 00:34:44;;;;;;;27.15;14.15;;;-6.50;98.00;;;;;;5014347;28;20026;-64
2023/01/21 00:37:10;;;;;;;20.08;12.07;;;-6.50;98.00;;;;;;5014236;28;20033;-64
2023/01/21 00:39:35;;;;;;;24.40;14.20;;;-6.60;98.00;;;;;;5014810;28;20112;-65
2023/01/21 00:42:03;;;;;;;23.55;14.43;;;-6.60;98.00;;;;;;5016657;28;20041;-64
2023/01/21 00:44:29;;;;;;;25.10;15.73;;;-6.70;98.00;;;;;;5017241;28;20105;-64
2023/01/21 00:46:54;;;;;;;27.35;15.43;;;-6.80;98.00;;;;;;5019784;28;20040;-64
2023/01/21 00:49:20;;;;;;;32.47;15.57;;;-6.80;98.00;;;;;;5026238;28;20033;-65
2023/01/21 00:51:45;;;;;;;24.77;15.07;;;-6.80;98.00;;;;;;5019046;28;20034;-64
2023/01/21 00:54:11;;;;;;;30.85;16.15;;;-6.80;98.00;;;;;;5015562;28;20036;-64
2023/01/21 00:56:36;;;;;;;25.23;15.15;;;-6.90;98.00;;;;;;5016704;28;20033;-64
2023/01/21 00:59:02;;;;;;;27.10;15.50;;;-6.90;98.00;;;;;;5014955;28;20418;-64
2023/01/21 01:01:32;;;;;;;26.85;15.40;;;-7.00;97.90;;;;;;5016084;28;20026;-64
2023/01/21 01:03:58;;;;;;;26.80;16.13;;;-7.00;98.00;;;;;;5021199;28;20033;-64
2023/01/21 01:06:27;;;;;;;30.02;16.42;;;-7.00;98.00;;;;;;5015121;28;20037;-64
2023/01/21 01:08:56;;;;;;;26.50;15.13;;;-7.00;98.00;;;;;;5014386;28;20037;-64
2023/01/21 01:11:24;;;;;;;27.65;15.63;;;-6.90;97.10;;;;;;5007412;28;20129;-64
2023/01/21 01:13:49;;;;;;;31.33;16.98;;;-6.90;97.70;;;;;;5011680;28;20423;-64
2023/01/21 01:16:15;;;;;;;24.45;14.68;;;-6.90;97.10;;;;;;5014710;28;20030;-64
2023/01/21 01:18:41;;;;;;;26.58;15.13;;;-6.90;97.50;;;;;;5002654;28;20029;-64
2023/01/21 01:21:14;;;;;;;27.23;15.50;;;-6.90;97.80;;;;;;4995026;28;20033;-64
2023/01/21 01:23:40;;;;;;;24.65;14.65;;;-6.90;97.70;;;;;;4999661;28;20114;-64
2023/01/21 01:26:08;;;;;;;22.77;13.48;;;-6.90;97.20;;;;;;4994212;28;20117;-64
2023/01/21 01:28:34;;;;;;;25.98;14.85;;;-6.90;97.10;;;;;;5007513;28;20037;-64
2023/01/21 01:31:00;;;;;;;25.85;15.63;;;-6.80;97.40;;;;;;5013892;28;20034;-64
2023/01/21 01:33:26;;;;;;;23.45;14.38;;;-6.90;97.40;;;;;;4995095;28;20089;-63
2023/01/21 01:35:52;;;;;;;26.55;15.75;;;-6.90;97.50;;;;;;4976399;28;20081;-63
2023/01/21 01:38:20;;;;;;;24.52;15.20;;;-6.90;96.50;;;;;;5001070;28;20372;-64
2023/01/21 01:40:52;;;;;;;25.77;15.15;;;-6.80;96.90;;;;;;4999669;28;20034;-64
2023/01/21 01:43:21;;;;;;;26.05;15.77;;;-6.80;97.40;;;;;;5006773;28;20395;-64
2023/01/21 01:45:47;;;;;;;22.65;13.63;;;-6.80;97.40;;;;;;5014636;28;20030;-64
2023/01/21 01:48:19;;;;;;;25.10;14.75;;;-6.80;97.50;;;;;;4992203;28;20364;-64
2023/01/21 01:50:46;;;;;;;24.52;15.65;;;-6.80;96.90;;;;;;5011176;28;20018;-64
2023/01/21 01:53:13;;;;;;;24.90;14.68;;;-6.80;97.70;;;;;;5010047;28;20054;-64
2023/01/21 01:55:42;;;;;;;28.00;14.75;;;-6.80;97.40;;;;;;4996682;28;20018;-63
2023/01/21 01:58:11;;;;;;;28.30;14.93;;;-6.80;97.40;;;;;;5008855;28;20057;-64
2023/01/21 02:00:37;;;;;;;23.00;14.35;;;-6.80;97.20;;;;;;5013486;28;20308;-64
2023/01/21 02:05:47;;;;;;;25.02;14.18;;;-6.70;97.60;;;;;;4992146;28;20486;-66
2023/01/21 02:08:14;;;;;;;24.65;14.45;;;-6.80;98.00;;;;;;4994006;28;20057;-66
2023/01/21 02:10:40;;;;;;;23.90;14.23;;;-6.90;97.80;;;;;;5012570;28;20324;-65
2023/01/21 02:13:06;;;;;;;24.15;14.65;;;-7.00;97.70;;;;;;5012009;28;20135;-65
2023/01/21 02:16:01;;;;;;;30.38;14.88;;;-7.00;97.30;;;;;;5015756;28;20109;-65
2023/01/21 02:18:32;;;;;;;30.35;15.95;;;-7.00;96.70;;;;;;5013863;28;20022;-65
2023/01/21 02:21:08;;;;;;;28.35;16.25;;;-7.00;96.30;;;;;;5014429;28;20072;-65
2023/01/21 02:23:55;;;;;;;26.00;16.10;;;-7.10;96.70;;;;;;5007556;28;20029;-64
2023/01/21 02:26:49;;;;;;;30.58;16.55;;;-7.10;96.10;;;;;;5015191;28;20060;-64
2023/01/21 02:29:36;;;;;;;31.35;18.45;;;-7.10;95.90;;;;;;5013807;28;20022;-64
2023/01/21 02:32:23;;;;;;;24.92;14.45;;;-7.20;96.00;;;;;;5014024;28;20033;-64
2023/01/21 02:35:05;;;;;;;28.98;16.30;;;-7.20;94.60;;;;;;5013344;28;20034;-64
2023/01/21 02:37:42;;;;;;;23.33;13.52;;;-7.20;95.20;;;;;;5009495;28;20026;-65
2023/01/21 02:40:40;;;;;;;28.17;15.07;;;-7.40;95.20;;;;;;5017231;28;20026;-64
2023/01/21 02:43:20;;;;;;;25.58;14.23;;;-7.50;94.60;;;;;;5015255;28;20112;-64
2023/01/21 02:45:54;;;;;;;18.40;11.20;;;-7.60;93.80;;;;;;5003558;28;20037;-64
2023/01/21 02:48:27;;;;;;;33.88;16.88;;;-7.70;93.40;;;;;;5011541;28;20109;-64
2023/01/21 02:50:53;;;;;;;31.30;17.58;;;-7.70;92.20;;;;;;5012968;28;20080;-64
2023/01/21 02:53:33;;;;;;;30.50;16.58;;;-7.50;91.40;;;;;;5016429;28;20366;-64
2023/01/21 02:56:06;;;;;;;33.88;18.42;;;-7.40;92.10;;;;;;5014053;28;20018;-64
2023/01/21 02:58:39;;;;;;;32.28;17.67;;;-7.50;92.10;;;;;;5018403;28;21052;-64
2023/01/21 03:01:20;;;;;;;23.13;13.85;;;-7.50;92.40;;;;;;5009022;28;20030;-64
2023/01/21 03:04:09;;;;;;;33.28;17.85;;;-7.50;91.60;;;;;;5029102;28;20040;-64
2023/01/21 03:06:53;;;;;;;31.98;17.35;;;-7.40;90.80;;;;;;5015978;28;20437;-64
2023/01/21 03:09:25;;;;;;;36.30;18.73;;;-7.30;91.10;;;;;;5015699;28;20407;-64
2023/01/21 03:12:00;;;;;;;33.50;18.20;;;-7.20;90.50;;;;;;5019077;28;20053;-64
2023/01/21 03:17:35;;;;;;;32.90;18.67;;;-7.10;91.50;;;;;;5010830;28;20037;-64
2023/01/21 03:20:07;;;;;;;39.08;21.20;;;-7.00;91.20;;;;;;5012148;28;20037;-64
2023/01/21 03:22:34;;;;;;;38.35;21.73;;;-6.90;90.60;;;;;;5008278;28;20057;-64
2023/01/21 03:25:03;;;;;;;38.38;19.42;;;-6.70;90.40;;;;;;5008945;28;20026;-64
2023/01/21 03:27:30;;;;;;;34.78;20.05;;;-6.70;90.70;;;;;;5008971;28;20025;-63
2023/01/21 03:30:01;;;;;;;27.35;14.88;;;-6.60;91.00;;;;;;5005358;28;20038;-63
2023/01/21 03:32:30;;;;;;;21.33;12.98;;;-6.60;91.70;;;;;;5008585;28;20025;-63
2023/01/21 03:34:56;;;;;;;25.00;13.30;;;-6.70;92.70;;;;;;5015413;28;20080;-64
2023/01/21 03:37:53;;;;;;;31.38;17.45;;;-6.80;93.00;;;;;;5015634;28;20161;-64
2023/01/21 03:40:23;;;;;;;31.40;18.90;;;-7.10;93.60;;;;;;5017774;28;20033;-64
2023/01/21 03:42:50;;;;;;;31.98;18.75;;;-7.20;92.50;;;;;;5016488;28;20506;-64
2023/01/21 03:45:21;;;;;;;30.67;17.48;;;-7.20;91.60;;;;;;5017684;28;20044;-65
2023/01/21 03:47:52;;;;;;;23.02;13.65;;;-7.30;91.70;;;;;;5017056;28;20026;-64
2023/01/21 03:50:41;;;;;;;25.77;15.05;;;-7.30;91.30;;;;;;5015027;28;20045;-64
2023/01/21 03:53:07;;;;;;;26.30;15.77;;;-7.20;90.30;;;;;;5015000;28;20108;-64
2023/01/21 03:55:34;;;;;;;21.90;12.07;;;-7.20;90.10;;;;;;5018227;28;20101;-64
2023/01/21 03:58:01;;;;;;;19.55;11.38;;;-7.10;89.30;;;;;;5016763;28;20022;-64
2023/01/21 04:00:27;;;;;;;25.25;12.95;;;-7.00;90.00;;;;;;5016890;28;20057;-64
2023/01/21 04:02:53;;;;;;;20.95;12.77;;;-7.10;91.00;;;;;;5023847;28;20432;-64
2023/01/21 04:05:18;;;;;;;30.65;16.38;;;-7.10;90.60;;;;;;5021959;28;20033;-64
2023/01/21 04:07:44;;;;;;;23.83;12.85;;;-7.10;90.80;;;;;;5014990;28;20030;-64
2023/01/21 04:10:10;;;;;;;30.05;16.52;;;-7.10;90.50;;;;;;5016084;28;20030;-64
2023/01/21 04:12:35;;;;;;;26.90;15.15;;;-7.10;92.00;;;;;;5015778;28;20393;-64
2023/01/21 04:15:01;;;;;;;32.70;18.48;;;-7.30;92.90;;;;;;5017279;28;20134;-64
2023/01/21 04:17:27;;;;;;;37.92;19.20;;;-7.60;95.10;;;;;;5017309;28;20022;-64
2023/01/21 04:19:53;;;;;;;107.75;46.88;;;-7.90;96.60;;;;;;5015333;28;20030;-64
2023/01/21 04:22:19;;;;;;;103.60;42.58;;;-8.20;95.70;;;;;;5015984;28;20041;-64
2023/01/21 04:24:45;;;;;;;42.08;20.63;;;-8.40;95.20;;;;;;5019039;28;20104;-64
2023/01/21 04:27:10;;;;;;;21.35;11.30;;;-8.50;94.70;;;;;;5017683;28;20104;-64
2023/01/21 04:29:36;;;;;;;22.23;12.80;;;-8.50;93.70;;;;;;5002099;28;20411;-64
2023/01/21 04:32:02;;;;;;;23.83;13.50;;;-8.50;93.20;;;;;;5015438;28;20036;-64
2023/01/21 04:34:28;;;;;;;21.17;11.77;;;-8.50;93.60;;;;;;5014614;28;20309;-64
2023/01/21 04:36:54;;;;;;;23.85;14.20;;;-8.60;93.70;;;;;;5011280;28;20069;-64
2023/01/21 04:39:19;;;;;;;19.85;11.32;;;-8.70;93.30;;;;;;5019199;28;20026;-64
2023/01/21 04:41:45;;;;;;;20.25;10.70;;;-8.60;92.00;;;;;;5015281;28;20030;-64
2023/01/21 04:44:14;;;;;;;18.85;10.90;;;-8.50;91.90;;;;;;5014529;28;20056;-65
2023/01/21 04:46:43;;;;;;;21.73;12.25;;;-8.60;93.00;;;;;;5011160;28;20021;-64
2023/01/21 04:49:08;;;;;;;20.75;10.43;;;-8.70;93.00;;;;;;5015206;28;20105;-63
2023/01/21 04:51:34;;;;;;;18.02;10.68;;;-8.80;92.30;;;;;;5010691;28;20105;-63
2023/01/21 04:54:00;;;;;;;19.88;11.32;;;-8.70;91.50;;;;;;5015479;28;20029;-63
2023/01/21 04:56:26;;;;;;;25.15;13.52;;;-8.70;91.40;;;;;;5013715;28;20030;-64
2023/01/21 04:58:51;;;;;;;21.40;11.50;;;-8.70;92.00;;;;;;5014280;28;20034;-66
2023/01/21 05:01:17;;;;;;;20.63;11.60;;;-8.70;91.20;;;;;;5017067;28;20026;-65
2023/01/21 05:03:42;;;;;;;17.83;10.27;;;-8.80;91.80;;;;;;5018072;28;20054;-65
2023/01/21 05:06:08;;;;;;;19.65;10.43;;;-8.80;91.30;;;;;;5013573;28;20782;-64
2023/01/21 05:08:34;;;;;;;18.02;10.07;;;-8.80;91.30;;;;;;5018328;28;20052;-64
2023/01/21 05:11:02;;;;;;;17.23;10.50;;;-8.80;90.80;;;;;;5016334;28;20054;-65
2023/01/21 05:13:28;;;;;;;19.70;9.93;;;-8.70;90.40;;;;;;5017042;28;20057;-64
2023/01/21 05:15:53;;;;;;;20.73;10.27;;;-8.80;90.70;;;;;;5014938;28;20049;-64
2023/01/21 05:18:19;;;;;;;21.73;12.02;;;-8.70;89.20;;;;;;5015837;28;20026;-64
2023/01/21 05:20:44;;;;;;;33.72;16.23;;;-8.50;87.30;;;;;;5014398;28;20034;-64
2023/01/21 05:23:10;;;;;;;35.85;17.77;;;-8.30;87.90;;;;;;5014100;28;20029;-64
2023/01/21 05:25:35;;;;;;;34.55;17.70;;;-8.20;88.70;;;;;;5011905;28;20467;-64
2023/01/21 05:28:01;;;;;;;26.00;12.88;;;-8.20;89.20;;;;;;5015001;28;20041;-64
2023/01/21 05:30:26;;;;;;;26.15;13.50;;;-8.20;88.40;;;;;;5014520;28;20028;-64
2023/01/21 05:32:53;;;;;;;26.80;13.52;;;-8.20;89.70;;;;;;5018573;28;20021;-64
2023/01/21 05:35:20;;;;;;;20.92;11.65;;;-8.40;91.70;;;;;;5013968;28;20040;-64
2023/01/21 05:37:46;;;;;;;16.98;9.75;;;-8.70;92.90;;;;;;5008080;28;20030;-65
2023/01/21 05:40:14;;;;;;;18.42;8.68;;;-8.80;92.40;;;;;;5018366;28;20029;-64
2023/01/21 05:42:39;;;;;;;18.38;8.98;;;-9.00;92.60;;;;;;5025458;28;20349;-64
2023/01/21 05:45:05;;;;;;;16.98;8.35;;;-9.20;92.60;;;;;;5015317;28;20105;-64
2023/01/21 05:47:31;;;;;;;12.07;6.88;;;-9.30;92.30;;;;;;4997852;28;20034;-64
2023/01/21 05:49:56;;;;;;;12.93;7.40;;;-9.40;92.00;;;;;;5014152;28;20076;-64
2023/01/21 05:52:22;;;;;;;12.30;7.05;;;-9.40;91.60;;;;;;5024421;28;20040;-63
2023/01/21 05:54:47;;;;;;;12.88;6.82;;;-9.40;91.60;;;;;;5010056;28;20026;-63
2023/01/21 05:57:13;;;;;;;11.98;7.05;;;-9.40;90.00;;;;;;5013157;28;20026;-64
2023/01/21 05:59:38;;;;;;;10.68;6.07;;;-9.10;88.50;;;;;;5011584;28;20330;-64
2023/01/21 06:02:04;;;;;;;11.15;6.93;;;-8.80;88.10;;;;;;5017287;28;20034;-64
2023/01/21 06:04:29;;;;;;;10.23;6.93;;;-8.90;90.00;;;;;;5018671;28;20116;-64
2023/01/21 06:06:56;;;;;;;13.82;6.55;;;-8.90;90.70;;;;;;5008430;28;20064;-63
2023/01/21 06:09:22;;;;;;;12.77;7.45;;;-9.00;90.40;;;;;;5012214;28;20041;-64
2023/01/21 06:11:47;;;;;;;12.93;7.80;;;-9.00;90.10;;;;;;5015861;28;20041;-64
2023/01/21 06:14:13;;;;;;;17.10;9.55;;;-9.10;91.70;;;;;;5021536;28;20038;-64
2023/01/21 06:16:38;;;;;;;19.70;11.40;;;-9.20;90.90;;;;;;5010524;28;20331;-64
2023/01/21 06:19:07;;;;;;;17.67;11.93;;;-9.20;90.00;;;;;;5008828;28;20022;-64
2023/01/21 06:21:32;;;;;;;18.10;11.30;;;-9.10;91.60;;;;;;4993829;28;20105;-64
2023/01/21 06:23:59;;;;;;;18.42;12.18;;;-9.20;93.00;;;;;;5011762;28;20109;-64
2023/01/21 06:26:24;;;;;;;18.13;11.48;;;-9.40;93.30;;;;;;4993613;28;20033;-64
2023/01/21 06:28:50;;;;;;;19.65;13.00;;;-9.40;92.70;;;;;;5011177;28;20022;-64
2023/01/21 06:31:16;;;;;;;14.85;9.18;;;-9.30;92.80;;;;;;5009176;28;20056;-64
2023/01/21 06:33:41;;;;;;;12.35;8.25;;;-9.30;92.90;;;;;;5013473;28;20434;-64
2023/01/21 06:36:07;;;;;;;15.23;8.32;;;-9.20;92.00;;;;;;5014070;28;20029;-63
2023/01/21 06:38:34;;;;;;;15.38;7.78;;;-9.10;92.00;;;;;;5016731;28;20045;-64
2023/01/21 06:41:01;;;;;;;25.02;16.45;;;-9.10;91.60;;;;;;5017270;28;20022;-64
2023/01/21 06:43:27;;;;;;;43.88;25.83;;;-8.90;90.00;;;;;;4996770;28;20026;-64
2023/01/21 06:45:53;;;;;;;31.25;18.25;;;-8.60;90.00;;;;;;5016214;28;20041;-64
2023/01/21 06:48:18;;;;;;;36.85;18.90;;;-8.60;91.50;;;;;;5016113;28;20030;-64
2023/01/21 06:50:44;;;;;;;36.08;18.05;;;-8.70;92.40;;;;;;5015811;28;20030;-64
2023/01/21 06:53:09;;;;;;;14.38;8.73;;;-8.90;93.10;;;;;;5015035;28;20521;-63
2023/01/21 06:55:35;;;;;;;23.42;11.65;;;-8.90;92.20;;;;;;5015794;28;20419;-64
2023/01/21 06:58:00;;;;;;;18.27;10.88;;;-9.10;93.20;;;;;;5016270;28;20036;-64
2023/01/21 07:00:26;;;;;;;21.05;10.38;;;-9.20;92.30;;;;;;5017706;28;20358;-64
2023/01/21 07:02:59;;;;;;;24.13;13.30;;;-9.10;91.20;;;;;;5021132;28;20368;-64
2023/01/21 07:05:25;;;;;;;89.60;38.67;;;-8.90;90.90;;;;;;5007923;28;20449;-64
2023/01/21 07:07:55;;;;;;;177.02;66.05;;;-8.80;90.00;;;;;;5015142;28;20453;-64
2023/01/21 07:10:21;;;;;;;98.70;41.08;;;-8.50;89.70;;;;;;5014022;28;20054;-64
2023/01/21 07:12:46;;;;;;;39.58;19.17;;;-8.50;91.20;;;;;;5014628;28;20113;-64
2023/01/21 07:15:12;;;;;;;43.35;20.95;;;-8.50;92.10;;;;;;5019004;28;20114;-64
2023/01/21 07:17:38;;;;;;;48.25;23.92;;;-8.60;92.10;;;;;;5020216;28;20076;-64
2023/01/21 07:20:04;;;;;;;34.42;17.33;;;-8.60;92.50;;;;;;5012896;28;20062;-64
2023/01/21 07:22:32;;;;;;;26.98;15.18;;;-8.70;92.20;;;;;;5011996;28;20037;-64
2023/01/21 07:24:57;;;;;;;23.13;12.90;;;-8.60;91.60;;;;;;5014189;28;20108;-64
2023/01/21 07:27:23;;;;;;;25.60;14.30;;;-8.50;91.70;;;;;;5016017;28;20121;-64
2023/01/21 07:29:48;;;;;;;28.23;16.70;;;-8.40;91.70;;;;;;5015121;28;20061;-64
2023/01/21 07:32:14;;;;;;;42.78;22.45;;;-8.30;92.20;;;;;;5015792;28;20038;-64
2023/01/21 07:34:39;;;;;;;36.20;20.58;;;-8.20;91.60;;;;;;5015216;28;20038;-64
2023/01/21 07:37:05;;;;;;;40.45;20.88;;;-8.10;92.20;;;;;;5012527;28;20037;-64
2023/01/21 07:39:30;;;;;;;46.95;26.17;;;-8.00;91.00;;;;;;5010455;28;20106;-64
2023/01/21 07:41:56;;;;;;;53.08;26.55;;;-7.80;91.20;;;;;;5016245;28;20095;-63
2023/01/21 07:44:24;;;;;;;37.78;21.70;;;-7.60;91.00;;;;;;5013601;28;20300;-64
2023/01/21 07:46:50;;;;;;;30.73;18.20;;;-7.40;91.20;;;;;;5009976;28;20030;-63
2023/01/21 07:49:17;;;;;;;25.80;15.20;;;-7.30;91.20;;;;;;5013903;28;20034;-63
2023/01/21 07:51:46;;;;;;;28.40;15.80;;;-7.10;90.90;;;;;;5016494;28;20034;-63
2023/01/21 07:54:12;;;;;;;33.17;19.40;;;-6.70;90.80;;;;;;5012547;28;20091;-64
2023/01/21 07:56:38;;;;;;;31.42;20.70;;;-6.50;91.50;;;;;;5014560;28;20073;-65
2023/01/21 07:59:03;;;;;;;36.38;21.92;;;-6.20;91.40;;;;;;5015503;28;20446;-64
2023/01/21 08:01:30;;;;;;;34.72;21.15;;;-6.00;91.30;;;;;;5014822;28;20035;-64
2023/01/21 08:03:57;;;;;;;36.05;22.52;;;-5.80;91.70;;;;;;5010947;28;20033;-65
2023/01/21 08:06:22;;;;;;;45.15;27.73;;;-5.60;92.30;;;;;;5012760;28;20026;-64
2023/01/21 08:08:48;;;;;;;39.13;23.33;;;-5.40;93.20;;;;;;5015667;28;20335;-64
2023/01/21 08:11:13;;;;;;;43.00;25.60;;;-5.20;91.50;;;;;;5015603;28;20386;-63
2023/01/21 08:13:43;;;;;;;54.78;34.53;;;-5.10;92.70;;;;;;5020008;28;20034;-63
2023/01/21 08:16:12;;;;;;;41.40;23.70;;;-4.90;92.20;;;;;;5009166;28;20018;-64
2023/01/21 08:18:38;;;;;;;41.80;24.33;;;-4.80;92.40;;;;;;5014838;28;20037;-63
2023/01/21 08:21:04;;;;;;;41.97;24.35;;;-4.70;91.90;;;;;;5013495;28;20034;-64
2023/01/21 08:23:29;;;;;;;42.53;22.30;;;-4.70;93.30;;;;;;5017750;28;20423;-64
2023/01/21 08:25:55;;;;;;;40.72;22.48;;;-4.70;93.10;;;;;;5020569;28;20034;-64
2023/01/21 08:28:21;;;;;;;37.72;20.67;;;-4.70;94.20;;;;;;5016184;28;20041;-64
2023/01/21 08:30:47;;;;;;;39.58;21.08;;;-4.70;93.10;;;;;;5013684;28;20366;-64
2023/01/21 08:33:13;;;;;;;40.53;22.58;;;-4.70;93.60;;;;;;5019245;28;20036;-64
2023/01/21 08:35:38;;;;;;;43.47;23.08;;;-4.60;93.00;;;;;;5015428;28;20041;-64
2023/01/21 08:38:04;;;;;;;41.72;23.02;;;-4.60;93.20;;;;;;5014657;28;20042;-64
2023/01/21 08:40:30;;;;;;;49.30;23.85;;;-4.50;93.20;;;;;;5012629;28;20037;-64
2023/01/21 08:42:59;;;;;;;44.30;22.48;;;-4.50;93.60;;;;;;5009243;28;20038;-64
2023/01/21 08:45:25;;;;;;;42.22;20.73;;;-4.50;93.50;;;;;;5012322;28;20038;-64
2023/01/21 08:47:54;;;;;;;55.30;30.58;;;-4.40;92.70;;;;;;5010391;28;20423;-64
2023/01/21 08:50:20;;;;;;;49.65;26.63;;;-4.40;92.40;;;;;;5015701;28;20153;-64
2023/01/21 08:52:53;;;;;;;44.17;23.20;;;-4.30;94.30;;;;;;5013427;28;20439;-64
2023/01/21 08:55:20;;;;;;;56.38;25.92;;;-4.30;93.90;;;;;;5005668;28;20498;-64
2023/01/21 08:57:47;;;;;;;52.25;26.10;;;-4.20;93.40;;;;;;5015644;28;20033;-63
2023/01/21 09:00:13;;;;;;;56.03;27.27;;;-4.10;95.40;;;;;;5016623;28;20018;-64
2023/01/21 09:02:38;;;;;;;60.00;28.27;;;-4.20;95.20;;;;;;5016133;28;20022;-63
2023/01/21 09:05:05;;;;;;;60.75;28.83;;;-4.10;93.90;;;;;;5016860;28;20033;-64
2023/01/21 09:07:30;;;;;;;60.33;27.63;;;-4.10;94.90;;;;;;5015405;28;20335;-63
2023/01/21 09:09:56;;;;;;;47.00;21.77;;;-4.00;93.30;;;;;;5014335;28;20026;-64
2023/01/21 09:12:21;;;;;;;73.15;32.60;;;-4.00;94.60;;;;;;5019321;28;20034;-64
2023/01/21 09:14:47;;;;;;;67.57;29.35;;;-3.80;96.20;;;;;;5016367;28;20028;-63
2023/01/21 09:17:12;;;;;;;62.38;30.35;;;-3.90;98.00;;;;;;5008381;28;20029;-63
2023/01/21 09:19:38;;;;;;;61.50;27.92;;;-3.90;95.50;;;;;;5012824;28;20018;-64
2023/01/21 09:22:05;;;;;;;65.35;30.05;;;-3.90;96.10;;;;;;5013634;28;20060;-63
2023/01/21 09:24:31;;;;;;;61.00;28.70;;;-3.90;96.10;;;;;;5013920;28;20026;-64
2023/01/21 09:26:56;;;;;;;58.05;26.98;;;-3.80;95.90;;;;;;5014701;28;20296;-63
2023/01/21 09:29:22;;;;;;;60.72;28.95;;;-3.60;97.60;;;;;;5009251;28;20034;-64
2023/01/21 09:31:47;;;;;;;62.03;28.63;;;-3.40;97.90;;;;;;5014223;28;20026;-63
2023/01/21 09:34:13;;;;;;;61.38;27.48;;;-3.20;98.00;;;;;;5013727;28;20027;-64
2023/01/21 09:36:38;;;;;;;72.20;30.80;;;-3.20;98.00;;;;;;5014550;28;20026;-63
2023/01/21 09:39:05;;;;;;;59.20;27.95;;;-3.10;98.00;;;;;;5010341;28;20120;-63
2023/01/21 09:42:03;;;;;;;59.75;28.27;;;-3.10;98.00;;;;;;5014569;28;20026;-63
2023/01/21 09:44:46;;;;;;;66.47;30.75;;;-3.10;98.00;;;;;;4985880;28;20034;-64
2023/01/21 09:47:14;;;;;;;62.95;29.38;;;-2.90;98.00;;;;;;5014220;28;20021;-64
2023/01/21 09:49:42;;;;;;;51.65;27.42;;;-2.90;98.00;;;;;;5013132;28;20033;-63
2023/01/21 09:52:38;;;;;;;50.67;23.50;;;-2.90;98.00;;;;;;5012309;28;20415;-63
2023/01/21 09:55:11;;;;;;;62.70;28.52;;;-2.80;98.00;;;;;;5009747;28;20080;-63
2023/01/21 09:57:57;;;;;;;54.72;24.95;;;-2.90;98.00;;;;;;5013363;28;20304;-63
2023/01/21 10:00:29;;;;;;;60.13;28.20;;;-2.80;98.00;;;;;;5014936;28;20105;-63
2023/01/21 10:03:19;;;;;;;54.45;28.30;;;-2.60;98.00;;;;;;5013328;28;20033;-64
2023/01/21 10:06:24;;;;;;;57.03;26.70;;;-2.50;98.00;;;;;;5014678;28;20038;-64
2023/01/21 10:08:55;;;;;;;53.85;26.58;;;-2.40;98.00;;;;;;4970191;28;20034;-64
2023/01/21 10:11:51;;;;;;;61.35;29.00;;;-2.50;98.00;;;;;;5012277;28;20126;-64
2023/01/21 10:14:50;;;;;;;52.67;26.75;;;-2.50;98.00;;;;;;5010305;28;20034;-64
2023/01/21 10:17:20;;;;;;;57.97;26.77;;;-2.40;98.00;;;;;;5014013;28;20025;-64
2023/01/21 10:20:01;;;;;;;65.05;31.42;;;-2.40;98.00;;;;;;4996276;28;20486;-64
2023/01/21 10:22:27;;;;;;;54.78;25.38;;;-2.60;98.00;;;;;;5003321;28;20374;-64
2023/01/21 10:25:01;;;;;;;65.13;30.25;;;-2.50;98.00;;;;;;5008643;28;20026;-64
2023/01/21 10:27:31;;;;;;;;;;;-2.70;98.00;;;;;;5014776;28;20060;-64
2023/01/21 10:30:01;;;;;;;47.78;24.52;;;-2.90;98.00;;;;;;5014075;28;20050;-64
2023/01/21 10:32:27;;;;;;;57.20;28.05;;;-2.90;98.00;;;;;;5011485;28;20042;-64
2023/01/21 10:34:55;;;;;;;72.05;33.60;;;-2.90;98.00;;;;;;5014289;28;20022;-64
2023/01/21 10:37:39;;;;;;;65.97;29.90;;;-2.90;98.00;;;;;;5013836;28;20057;-63
2023/01/21 10:40:41;;;;;;;81.78;36.35;;;-2.90;98.00;;;;;;5012743;28;20037;-64
2023/01/21 10:43:15;;;;;;;75.68;35.72;;;-3.20;98.00;;;;;;5015535;28;20033;-63
2023/01/21 10:46:04;;;;;;;80.85;36.70;;;-3.20;98.00;;;;;;5005747;28;20112;-64
2023/01/21 10:48:51;;;;;;;66.80;31.73;;;-3.20;98.00;;;;;;5013316;28;20049;-64
2023/01/21 10:51:41;;;;;;;57.92;29.73;;;-3.30;98.00;;;;;;5007605;28;20096;-66
2023/01/21 10:54:22;;;;;;;87.25;39.60;;;-3.20;98.00;;;;;;5010153;28;20026;-66
2023/01/21 10:57:12;;;;;;;75.57;36.45;;;-2.90;98.00;;;;;;5014936;28;20454;-64
2023/01/21 10:59:40;;;;;;;47.63;25.23;;;-2.80;98.00;;;;;;5013759;28;20022;-64
2023/01/21 11:02:08;;;;;;;51.70;26.90;;;-2.70;98.00;;;;;;5016310;28;20446;-65
2023/01/21 11:04:36;;;;;;;60.50;29.88;;;-2.60;98.00;;;;;;5012754;28;20021;-65
2023/01/21 11:07:08;;;;;;;53.88;26.98;;;-2.50;98.00;;;;;;5009330;28;20113;-64
2023/01/21 11:09:38;;;;;;;52.03;25.73;;;-2.50;98.00;;;;;;5013198;28;20439;-65
2023/01/21 11:12:04;;;;;;;47.92;23.80;;;-2.60;98.00;;;;;;5012918;28;20069;-64
2023/01/21 11:14:32;;;;;;;56.08;28.02;;;-2.70;98.00;;;;;;5013899;28;20030;-64
2023/01/21 11:16:58;;;;;;;68.32;34.95;;;-2.80;98.00;;;;;;5013772;28;20018;-64
2023/01/21 11:19:27;;;;;;;69.22;32.58;;;-2.90;98.00;;;;;;5016211;28;20407;-64
2023/01/21 11:22:16;;;;;;;58.28;30.67;;;-3.00;98.00;;;;;;5014161;28;20342;-64
2023/01/21 11:24:44;;;;;;;52.55;28.73;;;-2.90;98.00;;;;;;4999496;28;20041;-64
2023/01/21 11:27:33;;;;;;;79.95;36.67;;;-3.00;98.00;;;;;;5014969;28;20026;-64
2023/01/21 11:29:59;;;;;;;71.25;35.60;;;-2.90;98.00;;;;;;5017471;28;20022;-64
2023/01/21 11:32:27;;;;;;;62.45;31.17;;;-2.90;98.00;;;;;;5016566;28;20033;-64
2023/01/21 11:35:08;;;;;;;67.43;33.90;;;-2.80;98.00;;;;;;5017465;28;20025;-64
2023/01/21 11:37:36;;;;;;;63.30;33.25;;;-2.90;98.00;;;;;;5016520;28;20057;-64
2023/01/21 11:40:25;;;;;;;72.75;36.90;;;-2.90;98.00;;;;;;5018772;28;20029;-64
2023/01/21 11:42:53;;;;;;;71.57;35.42;;;-2.80;98.00;;;;;;5011846;28;20062;-64
2023/01/21 11:45:29;;;;;;;66.35;35.65;;;-2.90;98.00;;;;;;5017699;28;20319;-64
2023/01/21 11:47:55;;;;;;;58.63;33.03;;;-2.90;98.00;;;;;;5022063;28;20022;-64
2023/01/21 11:50:38;;;;;;;56.60;30.38;;;-2.90;98.00;;;;;;5017338;28;20443;-64
2023/01/21 11:53:06;;;;;;;57.25;30.00;;;-2.80;98.00;;;;;;5016465;28;20061;-64
2023/01/21 11:55:41;;;;;;;73.43;35.95;;;-2.80;98.00;;;;;;5015896;28;20030;-64
2023/01/21 11:58:20;;;;;;;65.20;33.10;;;-3.00;98.00;;;;;;5016039;28;20026;-64
2023/01/21 12:00:49;;;;;;;77.15;35.53;;;-3.20;98.00;;;;;;5014710;28;20089;-64
2023/01/21 12:03:19;;;;;;;61.33;31.50;;;-3.20;98.00;;;;;;5017554;28;20309;-64
2023/01/21 12:05:51;;;;;;;75.07;37.67;;;-3.10;98.00;;;;;;5016207;28;20227;-64
2023/01/21 12:08:26;;;;;;;76.88;39.08;;;-3.20;98.00;;;;;;4998338;28;20121;-64
2023/01/21 12:10:54;;;;;;;79.50;39.88;;;-3.00;98.00;;;;;;5015588;28;20045;-64
2023/01/21 12:13:35;;;;;;;68.28;34.88;;;-3.10;98.00;;;;;;5017523;28;20296;-64
2023/01/21 12:16:36;;;;;;;80.38;38.00;;;-3.10;98.00;;;;;;5014816;28;20058;-64
2023/01/21 12:19:19;;;;;;;79.13;37.17;;;-3.20;98.00;;;;;;5013709;28;20021;-64
2023/01/21 12:22:04;;;;;;;78.45;35.13;;;-3.20;98.00;;;;;;5015678;28;20040;-64
2023/01/21 12:25:06;;;;;;;80.05;40.67;;;-3.20;98.00;;;;;;5016929;28;20038;-64
2023/01/21 12:27:57;;;;;;;83.72;43.92;;;-3.20;98.00;;;;;;5001382;28;20026;-64
2023/01/21 12:30:50;;;;;;;71.57;35.75;;;-3.10;98.00;;;;;;5006669;28;20312;-64
2023/01/21 12:33:33;;;;;;;60.00;31.85;;;-3.10;97.60;;;;;;5017532;28;20030;-64
2023/01/21 12:36:34;;;;;;;68.72;37.10;;;-3.00;98.00;;;;;;5013824;28;20084;-64
2023/01/21 12:39:23;;;;;;;76.15;39.53;;;-2.70;98.00;;;;;;4997582;28;20099;-64
2023/01/21 12:42:03;;;;;;;78.78;41.83;;;-2.60;98.00;;;;;;5016842;28;20088;-64
2023/01/21 12:44:52;;;;;;;73.82;40.15;;;-2.60;98.00;;;;;;5016622;28;20029;-64
2023/01/21 12:47:22;;;;;;;75.88;41.85;;;-2.60;98.00;;;;;;4997922;28;20109;-64
2023/01/21 12:50:14;;;;;;;94.07;48.95;;;-2.70;98.00;;;;;;5000895;28;20038;-64